sim
Sign-in with your pilot id or email,
or register
Callsign
Passwort

Schedule Details

Flight Number: OEO3029
Departure: Hamburg Airport (EDDH) at 11:05
Arrival: Munich Airport (EDDM) at 12:30

Weather Information
Getting current METAR information for EDDH 260820Z VRB01KT CAVOK 11/07 Q0998 NOSIG
Getting current METAR information for EDDM 260820Z 27015KT 9999 SCT019 BKN028 08/05 Q1000 TEMPO 26015G25KT

Schedule Frequency

Route Map